Time;durP1;ratioP1;P1;durP2;ratioP2;P2;SDS_P1;SDS_P2;PMS_P1;PMS_P2;Temp;Humidity;BMP_temperature;BMP_pressure;BME280_temperature;BME280_humidity;BME280_pressure;Samples;Min_cycle;Max_cycle;Signal;HPM_P1;HPM_P2
2023/06/17 00:02:09;;;;;;;6.57;5.38;;;15.30;99.90;;;;;;4996322;28;20034;-76
2023/06/17 00:04:35;;;;;;;7.78;5.82;;;15.20;99.90;;;;;;4996642;28;20559;-76
2023/06/17 00:07:01;;;;;;;7.40;5.60;;;15.20;99.90;;;;;;4997949;28;20108;-76
2023/06/17 00:09:26;;;;;;;9.10;5.85;;;15.10;99.90;;;;;;4999110;28;20057;-76
2023/06/17 00:11:53;;;;;;;7.70;5.20;;;15.10;99.90;;;;;;4998945;28;20593;-76
2023/06/17 00:14:20;;;;;;;10.70;5.55;;;15.10;99.90;;;;;;4999931;28;20035;-76
2023/06/17 00:16:48;;;;;;;8.10;5.90;;;15.10;99.90;;;;;;4997269;28;20057;-76
2023/06/17 00:19:17;;;;;;;9.90;5.97;;;15.00;99.90;;;;;;4998528;28;20100;-76
2023/06/17 00:21:44;;;;;;;10.20;5.45;;;15.00;99.90;;;;;;4999005;28;20086;-76
2023/06/17 00:24:12;;;;;;;8.82;5.85;;;14.90;99.90;;;;;;4998250;28;20894;-76
2023/06/17 00:26:38;;;;;;;8.18;5.57;;;14.90;99.90;;;;;;4997619;28;20034;-77
2023/06/17 00:29:05;;;;;;;10.38;6.30;;;14.80;99.90;;;;;;4997832;28;20026;-76
2023/06/17 00:31:31;;;;;;;7.50;5.80;;;14.80;99.90;;;;;;4997280;28;20049;-76
2023/06/17 00:33:57;;;;;;;9.18;5.90;;;14.80;99.90;;;;;;4996954;28;20029;-77
2023/06/17 00:36:22;;;;;;;8.00;5.85;;;14.70;99.90;;;;;;4998273;28;20030;-76
2023/06/17 00:38:48;;;;;;;10.50;5.93;;;14.70;99.90;;;;;;4995829;28;20129;-76
2023/06/17 00:41:13;;;;;;;10.25;5.50;;;14.70;99.90;;;;;;4997732;28;20121;-77
2023/06/17 00:43:39;;;;;;;9.35;5.75;;;14.60;99.90;;;;;;4997778;28;20065;-77
2023/06/17 00:46:06;;;;;;;9.00;6.32;;;14.60;99.90;;;;;;4996588;28;20064;-76
2023/06/17 00:48:32;;;;;;;8.35;6.30;;;14.60;99.90;;;;;;4996912;28;20723;-77
2023/06/17 00:51:02;;;;;;;9.25;5.70;;;14.60;99.90;;;;;;4997616;28;21296;-77
2023/06/17 00:53:29;;;;;;;9.18;5.88;;;14.60;99.90;;;;;;4998233;28;20045;-77
2023/06/17 00:55:56;;;;;;;8.75;6.35;;;14.60;99.90;;;;;;4997520;28;20037;-77
2023/06/17 00:58:21;;;;;;;9.57;5.90;;;14.60;99.90;;;;;;4997441;28;20057;-76
2023/06/17 01:00:47;;;;;;;7.68;5.70;;;14.60;99.90;;;;;;4996897;28;20147;-76
2023/06/17 01:03:13;;;;;;;6.75;5.82;;;14.60;99.90;;;;;;4997631;28;20457;-76
2023/06/17 01:05:40;;;;;;;7.53;5.63;;;14.50;99.90;;;;;;4996323;28;20410;-77
2023/06/17 01:08:19;;;;;;;9.35;6.40;;;14.50;99.90;;;;;;4995877;28;20040;-77
2023/06/17 01:10:59;;;;;;;9.25;5.88;;;14.40;99.90;;;;;;4997565;28;20033;-76
2023/06/17 01:13:30;;;;;;;12.48;6.07;;;14.40;99.90;;;;;;4996422;28;20042;-76
2023/06/17 01:15:56;;;;;;;6.68;5.70;;;14.30;99.90;;;;;;4996819;28;20033;-76
2023/06/17 01:18:22;;;;;;;7.45;5.57;;;14.30;99.90;;;;;;4997153;28;20802;-76
2023/06/17 01:20:53;;;;;;;8.10;5.72;;;14.30;99.90;;;;;;4998028;28;20075;-77
2023/06/17 01:23:21;;;;;;;9.15;5.80;;;14.30;99.90;;;;;;4997160;28;20053;-78
2023/06/17 01:25:49;;;;;;;10.93;6.53;;;14.20;99.90;;;;;;4995962;28;20088;-80
2023/06/17 01:28:19;;;;;;;7.03;6.18;;;14.20;99.90;;;;;;4996603;28;20033;-76
2023/06/17 01:30:47;;;;;;;8.18;5.80;;;14.20;99.90;;;;;;4996820;28;20513;-77
2023/06/17 01:33:14;;;;;;;9.90;6.00;;;14.10;99.90;;;;;;4996696;28;20067;-77
2023/06/17 01:35:52;;;;;;;8.18;6.35;;;14.10;99.90;;;;;;4995909;28;20044;-77
2023/06/17 01:38:29;;;;;;;8.05;6.28;;;14.10;99.90;;;;;;4997029;28;21368;-76
2023/06/17 01:41:02;;;;;;;8.55;6.25;;;14.00;99.90;;;;;;4997408;28;20056;-76
2023/06/17 01:43:31;;;;;;;12.02;6.78;;;14.00;99.90;;;;;;4996691;28;20405;-76
2023/06/17 01:46:01;;;;;;;7.47;5.95;;;14.00;99.90;;;;;;4996533;28;20045;-77
2023/06/17 01:48:27;;;;;;;8.70;6.05;;;13.90;99.90;;;;;;4996835;28;20154;-76
2023/06/17 01:50:52;;;;;;;8.35;6.43;;;13.90;99.90;;;;;;4995742;28;21400;-76
2023/06/17 01:53:18;;;;;;;11.55;5.82;;;13.80;99.90;;;;;;4996175;28;20026;-76
2023/06/17 01:55:44;;;;;;;9.60;6.55;;;13.80;99.90;;;;;;4996768;28;20030;-76
2023/06/17 01:58:10;;;;;;;8.13;6.13;;;13.70;99.90;;;;;;4996452;28;20048;-77
2023/06/17 02:00:35;;;;;;;8.35;6.45;;;13.70;99.90;;;;;;4996279;28;20029;-76
2023/06/17 02:03:02;;;;;;;10.07;5.95;;;13.70;99.90;;;;;;4995663;28;20037;-77
2023/06/17 02:05:27;;;;;;;8.10;6.68;;;13.70;99.90;;;;;;4995496;28;20045;-76
2023/06/17 02:07:56;;;;;;;8.68;6.63;;;13.60;99.90;;;;;;4996647;28;20030;-76
2023/06/17 02:10:22;;;;;;;8.77;5.68;;;13.60;99.90;;;;;;4995843;28;20455;-76
2023/06/17 02:12:47;;;;;;;11.57;7.22;;;13.60;99.90;;;;;;4996410;28;20030;-76
2023/06/17 02:15:13;;;;;;;8.27;6.47;;;13.60;99.90;;;;;;4994925;28;20025;-76
2023/06/17 02:17:39;;;;;;;12.50;6.97;;;13.60;99.90;;;;;;4995728;28;20045;-77
2023/06/17 02:20:09;;;;;;;11.98;6.43;;;13.50;99.90;;;;;;4995677;28;20154;-76
2023/06/17 02:22:35;;;;;;;10.88;7.35;;;13.50;99.90;;;;;;4996218;28;20026;-76
2023/06/17 02:25:02;;;;;;;13.05;6.60;;;13.50;99.90;;;;;;4996370;28;20060;-77
2023/06/17 02:27:28;;;;;;;9.43;6.40;;;13.50;99.90;;;;;;4995115;28;20027;-77
2023/06/17 02:29:53;;;;;;;7.47;5.78;;;13.50;99.90;;;;;;4995598;28;20041;-76
2023/06/17 02:32:19;;;;;;;8.48;6.10;;;13.50;99.90;;;;;;4996080;28;20057;-76
2023/06/17 02:34:48;;;;;;;8.85;6.28;;;13.50;99.90;;;;;;4994629;28;20030;-77
2023/06/17 02:37:14;;;;;;;12.30;5.90;;;13.50;99.90;;;;;;4996003;28;20030;-76
2023/06/17 02:39:41;;;;;;;7.78;6.25;;;13.50;99.90;;;;;;4996169;28;20054;-76
2023/06/17 02:42:11;;;;;;;8.32;6.47;;;13.50;99.90;;;;;;4996081;28;20038;-77
2023/06/17 02:44:37;;;;;;;9.80;6.13;;;13.50;99.90;;;;;;4995581;28;20038;-77
2023/06/17 02:47:03;;;;;;;11.07;6.47;;;13.50;99.90;;;;;;4993827;28;20517;-76
2023/06/17 02:49:28;;;;;;;8.43;6.60;;;13.40;99.90;;;;;;4996509;28;20544;-77
2023/06/17 02:51:54;;;;;;;10.90;6.63;;;13.40;99.90;;;;;;4996119;28;20075;-76
2023/06/17 02:54:19;;;;;;;8.68;6.22;;;13.40;99.90;;;;;;4996069;28;20038;-76
2023/06/17 02:56:45;;;;;;;8.10;5.78;;;13.40;99.90;;;;;;4995056;28;20112;-76
2023/06/17 02:59:13;;;;;;;7.72;5.85;;;13.40;99.90;;;;;;4995701;28;20129;-76
2023/06/17 03:01:42;;;;;;;10.07;6.82;;;13.40;99.90;;;;;;4996092;28;20170;-77
2023/06/17 03:04:10;;;;;;;9.85;6.32;;;13.40;99.90;;;;;;4995672;28;20054;-77
2023/06/17 03:06:37;;;;;;;9.60;6.20;;;13.30;99.90;;;;;;4995181;28;20048;-76
2023/06/17 03:09:05;;;;;;;10.30;6.80;;;13.30;99.90;;;;;;4995305;28;20117;-76
2023/06/17 03:11:31;;;;;;;8.13;6.15;;;13.30;99.90;;;;;;4994965;28;20075;-77
2023/06/17 03:13:56;;;;;;;9.07;6.28;;;13.20;99.90;;;;;;4994875;28;20504;-76
2023/06/17 03:16:25;;;;;;;8.80;6.13;;;13.20;99.90;;;;;;4994428;28;20022;-76
2023/06/17 03:18:51;;;;;;;8.82;6.63;;;13.10;99.90;;;;;;4995813;28;20038;-76
2023/06/17 03:21:19;;;;;;;11.35;7.03;;;13.10;99.90;;;;;;4995201;28;21317;-76
2023/06/17 03:23:45;;;;;;;8.60;6.25;;;13.10;99.90;;;;;;4995127;28;20036;-76
2023/06/17 03:26:11;;;;;;;12.93;6.78;;;13.00;99.90;;;;;;4994812;28;20057;-76
2023/06/17 03:28:36;;;;;;;9.70;6.80;;;13.00;99.90;;;;;;4995717;28;20018;-77
2023/06/17 03:31:05;;;;;;;7.45;6.40;;;13.00;99.90;;;;;;4994921;28;20725;-76
2023/06/17 03:33:31;;;;;;;10.40;6.28;;;13.00;99.90;;;;;;4997296;28;20339;-77
2023/06/17 03:35:59;;;;;;;9.75;6.65;;;12.90;99.90;;;;;;4998157;28;20030;-76
2023/06/17 03:38:24;;;;;;;8.82;6.70;;;12.90;99.90;;;;;;4997648;28;20046;-76
2023/06/17 03:40:52;;;;;;;9.02;6.40;;;12.90;99.90;;;;;;4998623;28;20037;-76
2023/06/17 03:43:18;;;;;;;8.07;6.45;;;12.80;99.90;;;;;;4999274;28;20117;-76
2023/06/17 03:45:43;;;;;;;9.45;6.53;;;12.80;99.90;;;;;;4997840;28;20038;-76
2023/06/17 03:48:09;;;;;;;14.18;7.15;;;12.80;99.90;;;;;;4998593;28;20026;-76
2023/06/17 03:50:35;;;;;;;10.50;6.70;;;12.80;99.90;;;;;;4999172;28;21524;-76
2023/06/17 03:53:00;;;;;;;8.30;5.97;;;12.70;99.90;;;;;;4999873;28;20041;-76
2023/06/17 03:55:26;;;;;;;10.98;6.35;;;12.70;99.90;;;;;;5000171;28;20034;-76
2023/06/17 03:57:52;;;;;;;8.75;6.80;;;12.70;99.90;;;;;;4999409;28;20034;-77
2023/06/17 04:00:19;;;;;;;9.80;6.78;;;12.70;99.90;;;;;;4999976;28;21271;-76
2023/06/17 04:02:45;;;;;;;9.00;6.43;;;12.70;99.90;;;;;;4998310;28;20029;-77
2023/06/17 04:05:15;;;;;;;10.23;6.45;;;12.70;99.90;;;;;;4998339;28;20040;-77
2023/06/17 04:07:42;;;;;;;9.30;6.53;;;12.70;99.90;;;;;;4997371;28;20116;-76
2023/06/17 04:10:08;;;;;;;8.60;6.00;;;12.70;99.90;;;;;;4997365;28;20088;-77
2023/06/17 04:12:39;;;;;;;10.98;6.65;;;12.70;99.90;;;;;;4997894;28;20053;-76
2023/06/17 04:15:06;;;;;;;8.57;6.63;;;12.80;99.90;;;;;;4997972;28;20037;-77
2023/06/17 04:17:32;;;;;;;10.02;6.32;;;12.80;99.90;;;;;;4997600;28;20025;-77
2023/06/17 04:20:05;;;;;;;8.02;6.38;;;12.80;99.90;;;;;;4998943;28;20034;-76
2023/06/17 04:22:30;;;;;;;8.63;6.50;;;12.90;99.90;;;;;;4998392;28;20452;-76
2023/06/17 04:24:57;;;;;;;11.05;7.28;;;12.90;99.90;;;;;;4997266;28;20038;-76
2023/06/17 04:27:23;;;;;;;9.68;6.80;;;12.90;99.90;;;;;;4997345;28;20030;-76
2023/06/17 04:29:49;;;;;;;11.20;6.40;;;13.00;99.90;;;;;;4997647;28;20064;-76
2023/06/17 04:32:15;;;;;;;8.90;6.10;;;13.00;99.90;;;;;;4997727;28;20038;-76
2023/06/17 04:34:47;;;;;;;9.52;6.70;;;13.00;99.90;;;;;;4998122;28;20045;-78
2023/06/17 04:37:16;;;;;;;8.70;6.22;;;13.10;99.90;;;;;;4996140;28;20052;-79
2023/06/17 04:39:42;;;;;;;11.75;6.18;;;13.10;99.90;;;;;;4997207;28;20048;-76
2023/06/17 04:42:09;;;;;;;7.72;6.18;;;13.20;99.90;;;;;;4997750;28;20836;-76
2023/06/17 04:44:37;;;;;;;9.68;6.30;;;13.20;99.90;;;;;;4996380;28;20044;-77
2023/06/17 04:47:10;;;;;;;9.75;6.80;;;13.30;99.90;;;;;;4996839;28;20034;-76
2023/06/17 04:49:41;;;;;;;11.10;6.78;;;13.40;99.90;;;;;;4997348;28;20434;-70
2023/06/17 04:52:10;;;;;;;10.85;6.60;;;13.50;99.90;;;;;;4996656;28;20037;-72
2023/06/17 04:54:37;;;;;;;13.48;6.57;;;13.60;99.90;;;;;;4996719;28;20147;-72
2023/06/17 04:57:02;;;;;;;7.15;5.80;;;13.70;99.90;;;;;;4996057;28;20044;-72
2023/06/17 04:59:28;;;;;;;11.20;7.00;;;13.70;99.90;;;;;;4996920;28;20041;-72
2023/06/17 05:01:54;;;;;;;7.85;6.18;;;13.80;99.90;;;;;;4997797;28;20044;-71
2023/06/17 05:04:19;;;;;;;9.25;5.95;;;13.90;99.90;;;;;;4997553;28;20597;-73
2023/06/17 05:06:45;;;;;;;9.10;6.15;;;14.00;99.90;;;;;;4995550;28;20038;-72
2023/06/17 05:09:10;;;;;;;12.10;5.95;;;14.10;99.90;;;;;;4996184;28;21037;-72
2023/06/17 05:11:38;;;;;;;11.32;5.80;;;14.20;99.90;;;;;;4996611;28;20029;-72
2023/06/17 05:14:04;;;;;;;7.75;6.15;;;14.30;99.90;;;;;;4997708;28;20880;-72
2023/06/17 05:16:30;;;;;;;10.77;6.28;;;14.40;99.90;;;;;;4996869;28;20104;-72
2023/06/17 05:18:55;;;;;;;11.98;6.22;;;14.50;99.90;;;;;;4996468;28;20191;-72
2023/06/17 05:21:22;;;;;;;9.32;6.20;;;14.60;99.90;;;;;;4996333;28;20164;-74
2023/06/17 05:23:48;;;;;;;8.10;6.35;;;14.70;99.90;;;;;;4997064;28;20545;-73
2023/06/17 05:26:14;;;;;;;9.18;5.85;;;14.90;99.90;;;;;;4996634;28;20055;-74
2023/06/17 05:28:39;;;;;;;9.32;5.97;;;15.00;99.90;;;;;;4997237;28;20044;-74
2023/06/17 05:31:05;;;;;;;11.63;5.60;;;15.10;99.90;;;;;;4996754;28;20033;-73
2023/06/17 05:33:30;;;;;;;7.53;6.18;;;15.20;99.90;;;;;;4996985;28;20068;-73
2023/06/17 05:36:00;;;;;;;7.68;5.25;;;15.30;99.90;;;;;;4995793;28;20124;-73
2023/06/17 05:38:26;;;;;;;7.53;5.78;;;15.40;99.90;;;;;;4996217;28;20486;-73
2023/06/17 05:40:51;;;;;;;9.65;5.40;;;15.50;99.90;;;;;;4996163;28;20033;-73
2023/06/17 05:43:17;;;;;;;8.85;5.63;;;15.70;99.90;;;;;;4996080;28;20033;-73
2023/06/17 05:45:42;;;;;;;7.55;5.43;;;15.80;99.90;;;;;;4995392;28;20033;-73
2023/06/17 05:48:08;;;;;;;7.10;5.80;;;16.00;99.90;;;;;;4996658;28;20048;-73
2023/06/17 05:50:33;;;;;;;11.20;5.60;;;16.00;99.90;;;;;;4995014;28;20057;-73
2023/06/17 05:52:59;;;;;;;11.45;5.75;;;16.20;99.90;;;;;;4995995;28;20045;-74
2023/06/17 05:55:25;;;;;;;9.43;6.05;;;16.30;99.90;;;;;;4995190;28;20069;-73
2023/06/17 05:57:52;;;;;;;8.10;5.50;;;16.40;99.90;;;;;;4996581;28;20033;-74
2023/06/17 06:00:18;;;;;;;10.25;5.70;;;16.60;99.90;;;;;;4995937;28;20049;-74
2023/06/17 06:02:43;;;;;;;9.43;5.55;;;16.70;99.90;;;;;;4994661;28;20030;-73
2023/06/17 06:05:09;;;;;;;6.72;5.05;;;16.80;99.90;;;;;;4995419;28;20056;-73
2023/06/17 06:07:35;;;;;;;7.82;5.53;;;17.00;99.90;;;;;;4995885;28;20152;-74
2023/06/17 06:10:05;;;;;;;9.05;5.72;;;17.00;99.90;;;;;;4996420;28;20089;-73
2023/06/17 06:12:31;;;;;;;7.43;5.78;;;17.10;99.90;;;;;;4995943;28;20409;-73
2023/06/17 06:14:57;;;;;;;10.35;5.57;;;17.40;99.90;;;;;;4995986;28;20029;-73
2023/06/17 06:17:23;;;;;;;7.70;5.22;;;17.50;99.90;;;;;;4995247;28;20518;-73
2023/06/17 06:19:49;;;;;;;11.40;5.90;;;17.70;99.90;;;;;;4995560;28;20132;-73
2023/06/17 06:22:14;;;;;;;9.60;5.40;;;17.80;99.90;;;;;;4996710;28;20532;-73
2023/06/17 06:24:40;;;;;;;7.85;5.70;;;17.90;99.90;;;;;;4995914;28;20030;-73
2023/06/17 06:27:05;;;;;;;8.35;5.70;;;18.10;99.90;;;;;;4995534;28;20041;-73
2023/06/17 06:29:31;;;;;;;7.90;5.15;;;18.20;99.90;;;;;;4995886;28;20042;-72
2023/06/17 06:31:57;;;;;;;9.15;5.22;;;18.40;99.90;;;;;;4995629;28;20040;-72
2023/06/17 06:34:22;;;;;;;6.13;5.18;;;18.60;99.90;;;;;;4995323;28;20975;-73
2023/06/17 06:36:48;;;;;;;7.95;5.60;;;18.90;99.90;;;;;;4991435;28;20441;-72
2023/06/17 06:39:13;;;;;;;9.68;5.82;;;18.90;99.90;;;;;;4994329;28;20041;-72
2023/06/17 06:41:39;;;;;;;8.00;5.68;;;19.10;99.90;;;;;;4997356;28;20033;-73
2023/06/17 06:44:04;;;;;;;6.80;5.53;;;19.20;99.90;;;;;;4995426;28;20030;-72
2023/06/17 06:46:31;;;;;;;6.68;4.82;;;19.30;99.90;;;;;;4995004;28;20040;-74
2023/06/17 06:48:58;;;;;;;9.82;5.47;;;19.50;99.90;;;;;;4996419;28;20057;-74
2023/06/17 06:51:24;;;;;;;6.47;5.07;;;19.70;99.90;;;;;;4995777;28;20115;-72
2023/06/17 06:53:50;;;;;;;6.47;5.30;;;19.80;99.90;;;;;;4996036;28;20034;-73
2023/06/17 06:56:15;;;;;;;8.10;5.50;;;20.00;99.90;;;;;;5032353;23;20099;-76
2023/06/17 06:58:41;;;;;;;5.63;4.88;;;20.10;99.90;;;;;;4982140;28;20049;-74
2023/06/17 07:01:06;;;;;;;8.20;5.00;;;20.20;99.90;;;;;;4983313;28;20034;-75
2023/06/17 07:03:32;;;;;;;10.65;4.80;;;20.30;99.90;;;;;;4983867;28;20066;-75
2023/06/17 07:05:58;;;;;;;6.63;5.38;;;20.40;99.90;;;;;;4982313;28;20388;-76
2023/06/17 07:08:24;;;;;;;10.38;5.28;;;20.40;99.90;;;;;;4986984;28;20816;-75
2023/06/17 07:10:50;;;;;;;7.65;5.15;;;20.40;99.90;;;;;;4986880;28;20034;-74
2023/06/17 07:13:17;;;;;;;10.38;5.38;;;20.50;99.90;;;;;;4986313;28;20030;-74
2023/06/17 07:15:43;;;;;;;6.85;5.20;;;20.60;99.90;;;;;;4986222;28;20072;-74
2023/06/17 07:18:10;;;;;;;8.32;6.10;;;20.70;99.90;;;;;;4986658;28;20129;-74
2023/06/17 07:20:37;;;;;;;11.07;6.15;;;20.70;99.90;;;;;;4986174;28;20038;-74
2023/06/17 07:23:03;;;;;;;9.57;5.38;;;20.80;99.90;;;;;;4987847;28;20106;-73
2023/06/17 07:25:28;;;;;;;10.23;5.35;;;21.00;99.90;;;;;;4986013;28;20147;-74
2023/06/17 07:27:59;;;;;;;6.13;4.68;;;20.90;99.90;;;;;;4987099;28;20037;-73
2023/06/17 07:30:25;;;;;;;7.30;4.63;;;20.90;99.90;;;;;;4986775;28;20030;-73
2023/06/17 07:32:51;;;;;;;6.13;4.50;;;21.00;99.90;;;;;;4985529;28;20177;-73
2023/06/17 07:35:16;;;;;;;7.93;4.43;;;21.10;99.90;;;;;;4985822;28;21383;-73
2023/06/17 07:37:42;;;;;;;9.70;4.45;;;21.20;99.90;;;;;;4984774;28;20038;-73
2023/06/17 07:40:10;;;;;;;6.22;4.22;;;21.20;99.90;;;;;;4985115;28;20034;-73
2023/06/17 07:42:37;;;;;;;6.10;4.22;;;21.20;99.90;;;;;;4986868;28;20065;-82
2023/06/17 07:45:07;;;;;;;7.20;4.70;;;21.30;99.90;;;;;;4986047;28;20041;-74
2023/06/17 07:47:32;;;;;;;6.75;4.07;;;21.40;99.90;;;;;;4985619;28;20113;-74
2023/06/17 07:49:58;;;;;;;5.70;4.28;;;21.50;99.90;;;;;;4985377;28;20030;-73
2023/06/17 07:52:23;;;;;;;6.70;4.80;;;21.50;99.90;;;;;;4985490;28;20038;-74
2023/06/17 07:54:51;;;;;;;9.05;4.75;;;21.50;99.90;;;;;;4985999;28;20905;-73
2023/06/17 07:57:16;;;;;;;7.15;4.15;;;21.50;99.90;;;;;;4985240;28;20551;-74
2023/06/17 07:59:42;;;;;;;12.13;4.10;;;21.50;99.90;;;;;;4983206;28;20041;-74
2023/06/17 08:02:08;;;;;;;9.07;4.40;;;21.50;99.90;;;;;;4985954;28;20034;-74
2023/06/17 08:04:33;;;;;;;5.75;3.75;;;21.70;99.90;;;;;;4984793;28;20602;-73
2023/06/17 08:06:59;;;;;;;9.52;4.40;;;21.80;99.90;;;;;;4983557;28;20026;-73
2023/06/17 08:09:25;;;;;;;10.13;5.03;;;21.70;99.90;;;;;;4985188;28;20426;-74
2023/06/17 08:11:50;;;;;;;6.90;4.10;;;21.70;99.90;;;;;;4985313;28;20026;-74
2023/06/17 08:14:16;;;;;;;5.63;4.28;;;21.70;99.90;;;;;;4966361;28;20062;-75
2023/06/17 08:16:43;;;;;;;7.78;4.40;;;21.80;99.90;;;;;;4984157;28;20068;-81
2023/06/17 08:19:08;;;;;;;7.90;4.72;;;21.80;99.90;;;;;;4982752;28;20821;-77
2023/06/17 08:21:35;;;;;;;7.53;4.18;;;21.90;99.90;;;;;;4984735;28;20030;-76
2023/06/17 08:24:24;;;;;;;12.65;5.35;;;21.90;99.90;;;;;;4985044;28;20045;-76
2023/06/17 08:26:50;;;;;;;5.43;4.45;;;22.00;99.90;;;;;;4988666;28;20100;-82
2023/06/17 08:29:17;;;;;;;6.05;3.97;;;22.00;99.90;;;;;;4989553;28;20034;-80
2023/06/17 08:31:47;;;;;;;6.30;4.30;;;22.10;99.90;;;;;;4989515;28;20023;-79
2023/06/17 08:34:13;;;;;;;7.10;4.45;;;22.10;99.90;;;;;;4989108;28;20091;-79
2023/06/17 08:36:46;;;;;;;5.53;3.85;;;22.20;99.90;;;;;;4986416;28;20538;-79
2023/06/17 08:39:12;;;;;;;8.88;5.10;;;22.30;99.90;;;;;;4986487;28;20180;-79
2023/06/17 08:41:40;;;;;;;7.03;4.75;;;22.40;99.90;;;;;;4988176;28;20096;-79
2023/06/17 08:44:06;;;;;;;6.78;3.90;;;22.50;99.90;;;;;;4988117;28;20029;-80
2023/06/17 08:46:33;;;;;;;6.78;4.30;;;22.60;99.90;;;;;;4988102;28;20064;-80
2023/06/17 08:48:59;;;;;;;8.30;4.25;;;22.70;99.90;;;;;;4988512;28;20022;-79
2023/06/17 08:51:25;;;;;;;6.72;4.13;;;22.80;99.90;;;;;;4989895;28;20022;-79
2023/06/17 08:53:52;;;;;;;6.18;4.47;;;22.80;99.90;;;;;;4988939;28;20034;-79
2023/06/17 08:56:18;;;;;;;6.07;4.00;;;22.80;99.90;;;;;;4989031;28;20037;-80
2023/06/17 08:58:44;;;;;;;7.90;4.53;;;22.90;99.90;;;;;;4988858;28;20097;-79
2023/06/17 09:01:11;;;;;;;6.55;4.43;;;22.90;99.90;;;;;;4988782;28;20031;-79
2023/06/17 09:03:39;;;;;;;5.75;4.70;;;23.00;99.90;;;;;;4989968;28;20708;-79
2023/06/17 09:06:28;;;;;;;6.32;4.93;;;23.10;99.90;;;;;;4989749;28;20045;-80
2023/06/17 09:08:55;;;;;;;6.72;4.15;;;23.20;99.90;;;;;;4990270;28;20092;-79
2023/06/17 09:11:28;;;;;;;8.80;4.60;;;23.30;99.90;;;;;;4988154;28;20677;-81
2023/06/17 09:13:59;;;;;;;5.93;4.40;;;23.40;98.10;;;;;;4983038;28;20168;-79
2023/06/17 09:16:27;;;;;;;9.75;4.38;;;23.30;98.00;;;;;;4982957;28;20603;-75
2023/06/17 09:18:57;;;;;;;6.32;4.60;;;23.20;98.30;;;;;;4984885;28;20050;-76
2023/06/17 09:21:24;;;;;;;8.77;4.10;;;23.20;99.10;;;;;;4985050;28;20078;-76
2023/06/17 09:24:01;;;;;;;8.85;4.45;;;23.20;98.90;;;;;;4984871;28;20022;-76
2023/06/17 09:26:30;;;;;;;9.80;4.60;;;23.10;99.00;;;;;;4983882;28;20029;-75
2023/06/17 09:29:06;;;;;;;8.60;4.60;;;23.10;96.90;;;;;;4985097;28;20092;-75
2023/06/17 09:31:45;;;;;;;8.88;4.50;;;23.30;97.80;;;;;;4984041;28;20968;-76
2023/06/17 09:34:11;;;;;;;7.22;4.45;;;23.50;98.10;;;;;;4982224;28;20068;-76
2023/06/17 09:36:38;;;;;;;6.78;4.13;;;23.90;96.80;;;;;;4986073;28;20030;-76
2023/06/17 09:39:08;;;;;;;6.80;4.50;;;24.00;95.50;;;;;;4984371;28;20190;-76
2023/06/17 09:41:38;;;;;;;11.73;4.70;;;24.30;93.20;;;;;;4983438;28;20027;-76
2023/06/17 09:44:05;;;;;;;9.75;4.50;;;24.60;94.10;;;;;;4983829;28;20333;-76
2023/06/17 09:46:36;;;;;;;14.18;4.40;;;25.10;94.20;;;;;;4983036;28;20026;-76
2023/06/17 09:49:12;;;;;;;9.05;4.60;;;25.60;92.20;;;;;;4983190;28;20066;-75
2023/06/17 09:51:39;;;;;;;29.05;5.68;;;25.50;92.10;;;;;;4983815;28;20085;-76
2023/06/17 09:54:06;;;;;;;7.88;4.35;;;25.40;90.40;;;;;;4982540;28;20874;-76
2023/06/17 09:56:33;;;;;;;6.70;4.22;;;25.30;90.70;;;;;;4981624;28;20584;-75
2023/06/17 09:58:58;;;;;;;6.18;4.20;;;25.20;89.90;;;;;;4981722;28;20449;-75
2023/06/17 10:01:30;;;;;;;8.30;4.80;;;25.10;89.60;;;;;;4982705;28;20039;-75
2023/06/17 10:04:03;;;;;;;22.65;5.10;;;24.80;90.10;;;;;;4981739;28;20030;-75
2023/06/17 10:06:30;;;;;;;38.53;5.60;;;24.80;90.20;;;;;;4982735;28;20088;-76
2023/06/17 10:08:57;;;;;;;7.70;4.40;;;24.90;90.50;;;;;;4983398;28;20767;-76
2023/06/17 10:11:25;;;;;;;16.50;4.68;;;25.20;90.20;;;;;;4984222;28;20037;-75
2023/06/17 10:13:59;;;;;;;8.40;4.20;;;25.50;90.30;;;;;;4967005;28;20081;-73
2023/06/17 10:16:27;;;;;;;19.42;5.88;;;25.70;90.70;;;;;;4983359;28;20061;-75
2023/06/17 10:18:55;;;;;;;7.85;4.30;;;26.20;88.70;;;;;;4983327;28;20529;-76
2023/06/17 10:21:24;;;;;;;7.70;4.40;;;26.10;87.30;;;;;;4982872;28;20120;-76
2023/06/17 10:23:52;;;;;;;9.13;5.15;;;25.90;87.30;;;;;;4984245;28;20030;-75
2023/06/17 10:26:19;;;;;;;13.48;4.90;;;25.60;88.30;;;;;;4982584;28;20060;-75
2023/06/17 10:29:02;;;;;;;8.05;4.90;;;25.10;87.90;;;;;;4985077;28;20034;-82
2023/06/17 10:31:33;;;;;;;7.30;4.63;;;25.00;87.90;;;;;;4984227;28;20030;-75
2023/06/17 10:34:03;;;;;;;7.30;4.50;;;25.10;88.70;;;;;;4982636;28;20805;-72
2023/06/17 10:36:29;;;;;;;6.95;4.25;;;25.60;89.30;;;;;;4982626;28;20050;-76
2023/06/17 10:38:57;;;;;;;9.68;4.47;;;25.90;89.00;;;;;;4983768;28;20042;-76
2023/06/17 10:41:37;;;;;;;7.35;4.50;;;26.40;85.20;;;;;;4984215;28;20112;-79
2023/06/17 10:44:26;;;;;;;7.10;4.70;;;26.90;82.70;;;;;;4987940;28;20041;-76
2023/06/17 10:46:51;;;;;;;6.22;4.60;;;27.30;82.80;;;;;;4987638;28;20042;-77
2023/06/17 10:49:18;;;;;;;5.57;4.57;;;27.50;82.20;;;;;;4987873;28;20030;-76
2023/06/17 10:51:51;;;;;;;6.60;4.55;;;28.00;78.70;;;;;;4985919;28;20058;-76
2023/06/17 10:54:27;;;;;;;7.80;4.63;;;28.20;78.20;;;;;;4985877;28;20042;-76
2023/06/17 10:56:53;;;;;;;7.13;4.50;;;28.50;77.90;;;;;;4983392;28;20038;-76
2023/06/17 10:59:28;;;;;;;10.25;5.07;;;28.60;77.10;;;;;;4985587;28;20037;-76
2023/06/17 11:02:07;;;;;;;6.43;4.68;;;28.50;77.20;;;;;;4985735;28;21407;-76
2023/06/17 11:04:36;;;;;;;8.23;5.30;;;28.60;75.80;;;;;;4985635;28;20034;-75
2023/06/17 11:07:04;;;;;;;6.03;4.78;;;28.80;73.80;;;;;;4982964;28;20034;-75
2023/06/17 11:09:31;;;;;;;6.60;4.57;;;28.70;73.30;;;;;;4982696;28;20038;-76
2023/06/17 11:11:59;;;;;;;10.10;4.97;;;28.60;74.90;;;;;;4985395;28;20028;-76
2023/06/17 11:14:27;;;;;;;7.82;4.90;;;28.50;72.10;;;;;;4984898;28;20045;-76
2023/06/17 11:16:52;;;;;;;8.00;4.55;;;28.40;74.10;;;;;;4985163;28;20332;-76
2023/06/17 11:19:18;;;;;;;6.50;4.93;;;28.50;72.90;;;;;;4984626;28;20052;-75
2023/06/17 11:21:44;;;;;;;8.55;4.50;;;28.50;73.80;;;;;;4979503;28;20026;-76
2023/06/17 11:24:11;;;;;;;9.57;5.22;;;28.60;70.90;;;;;;4984391;28;20153;-75
2023/06/17 11:26:37;;;;;;;6.57;4.78;;;28.60;71.80;;;;;;4985782;28;20030;-75
2023/06/17 11:29:04;;;;;;;6.05;4.75;;;28.70;70.70;;;;;;4986570;28;20033;-76
2023/06/17 11:31:38;;;;;;;8.85;4.70;;;28.60;68.00;;;;;;4986849;28;20681;-75
2023/06/17 11:34:05;;;;;;;6.07;4.63;;;28.60;68.40;;;;;;4984055;28;20131;-76
2023/06/17 11:36:33;;;;;;;8.68;4.78;;;28.50;69.50;;;;;;4984014;28;20754;-76
2023/06/17 11:38:59;;;;;;;7.85;4.90;;;28.80;68.40;;;;;;4985808;28;20380;-75
2023/06/17 11:41:25;;;;;;;7.05;5.00;;;28.90;69.20;;;;;;4986211;28;20141;-76
2023/06/17 11:43:51;;;;;;;9.88;5.00;;;28.90;64.90;;;;;;4987801;28;20118;-76
2023/06/17 11:46:24;;;;;;;6.10;4.78;;;28.90;64.60;;;;;;4984643;28;20053;-76
2023/06/17 11:48:50;;;;;;;10.40;5.38;;;29.20;65.60;;;;;;4986318;28;20742;-75
2023/06/17 11:51:19;;;;;;;6.45;4.38;;;29.40;66.20;;;;;;4986312;28;20034;-76
2023/06/17 11:53:46;;;;;;;5.70;4.20;;;29.20;65.20;;;;;;4985769;28;20672;-75
2023/06/17 11:56:17;;;;;;;9.23;5.03;;;29.10;64.20;;;;;;4984105;28;20061;-77
2023/06/17 11:58:44;;;;;;;5.65;4.75;;;29.10;65.10;;;;;;4984257;28;20569;-75
2023/06/17 12:01:12;;;;;;;6.57;4.90;;;29.50;64.80;;;;;;4984141;28;20030;-76
2023/06/17 12:03:38;;;;;;;9.18;4.55;;;29.80;65.70;;;;;;4986063;28;20058;-77
2023/06/17 12:06:04;;;;;;;12.32;4.40;;;29.70;65.10;;;;;;4982433;28;20030;-76
2023/06/17 12:08:34;;;;;;;8.75;5.82;;;29.50;65.60;;;;;;4983520;28;20030;-76
2023/06/17 12:11:20;;;;;;;9.98;4.82;;;29.30;65.20;;;;;;4982199;28;20037;-76
2023/06/17 12:13:47;;;;;;;11.50;4.68;;;29.30;65.70;;;;;;4980436;28;20049;-76
2023/06/17 12:16:27;;;;;;;7.68;4.72;;;29.20;64.60;;;;;;4980448;28;20030;-77
2023/06/17 12:18:53;;;;;;;14.88;4.68;;;29.40;64.60;;;;;;4980727;28;20050;-76
2023/06/17 12:21:20;;;;;;;9.90;4.45;;;29.60;65.40;;;;;;4979689;28;20038;-75
2023/06/17 12:23:46;;;;;;;8.98;5.38;;;29.60;63.80;;;;;;4979959;28;20125;-76
2023/06/17 12:26:11;;;;;;;7.38;4.68;;;29.30;63.90;;;;;;4979468;28;20110;-76
2023/06/17 12:28:40;;;;;;;7.88;4.35;;;28.80;64.80;;;;;;4980169;28;20078;-76
2023/06/17 12:31:05;;;;;;;12.25;4.95;;;28.50;64.80;;;;;;4980815;28;20081;-76
2023/06/17 12:33:31;;;;;;;6.72;4.32;;;28.40;67.60;;;;;;4981280;28;21072;-77
2023/06/17 12:35:56;;;;;;;5.53;4.20;;;28.60;67.00;;;;;;4980905;28;20026;-77
2023/06/17 12:38:25;;;;;;;8.65;4.65;;;28.90;67.10;;;;;;4981672;28;20038;-76
2023/06/17 12:40:51;;;;;;;5.38;4.00;;;29.20;66.10;;;;;;4986063;28;20106;-78
2023/06/17 12:43:16;;;;;;;7.35;4.78;;;29.60;66.20;;;;;;4992034;28;20648;-80
2023/06/17 12:45:42;;;;;;;7.78;4.60;;;29.90;62.40;;;;;;4997171;28;20105;-78
2023/06/17 12:48:07;;;;;;;8.23;4.55;;;30.00;62.40;;;;;;4966771;28;21496;-76